CYRQ

Trois-Rivieres Airport

Trois-Rivieres, , Canada
TAF CYRQ 190742Z 1908/1920 20006KT P6SM BKN040 TEMPO 1908/1912 6SM -SN BECMG 1910/1912 22010G20KT FM191500 22015G25KT P6SM BKN030 RMK FCST BASED ON AUTO OBS. NXT FCST BY 191400Z
Issued Valid From Valid To
Oct-19 @ 07:42 UTC
(an hour ago)
Oct-19 @ 08:00 UTC
(an hour ago)
Oct-19 @ 20:00 UTC
(in 11 hours)
Oct-19 @ 08:00 to Oct-19 @ 10:00
TAF CYRQ 190742Z 1908/1920 20006KT P6SM BKN040
Wind Visibility Clouds
200° at 6 knots Greater than 6 miles
  • Broken at 4,000' AGL
Temporary Oct-19 @ 08:00 to Oct-19 @ 12:00
TEMPO 1908/1912 6SM -SN
Visibility Conditions
6 miles
  • Light Snow
Becoming Oct-19 @ 10:00 to Oct-19 @ 15:00
BECMG 1910/1912 22010G20KT
Wind Visibility Clouds
220° at 10 knots
 Gusting to 20 knots
Greater than 6 miles
  • Broken at 4,000' AGL
From Oct-19 @ 15:00 to Oct-19 @ 20:00
FM191500 22015G25KT P6SM BKN030 RMK FCST BASED ON AUTO OBS. NXT FCST BY 191400Z
Wind Visibility Clouds
220° at 15 knots
 Gusting to 25 knots
Greater than 6 miles
  • Broken at 3,000' AGL
TAF CYRQ 190742Z 1908/1920 20006KT P6SM BKN040 TEMPO 1908/1912 6SM -SN BECMG 1910/1912 22010G20KT FM191500 22015G25KT P6SM BKN030 RMK FCST BASED ON AUTO OBS. NXT FCST BY 191400Z
Issued Oct-19 @ 07:42 UTC
(an hour ago)
Valid From Oct-19 @ 08:00 UTC
(an hour ago)
Valid To Oct-19 @ 20:00 UTC
(in 11 hours)
Oct-19 @ 08:00 - Oct-19 @ 10:00
Wind Visibility
200° at 6 knots Greater than 6 miles
Clouds
  • Broken at 4,000' AGL
Temporary Oct-19 @ 08:00 - Oct-19 @ 12:00
Conditions
  • Light Snow
Becoming Oct-19 @ 10:00 - Oct-19 @ 15:00
Wind Visibility
220° at 10 knots
 Gusting to 20 knots
Greater than 6 miles
Clouds
  • Broken at 4,000' AGL
From Oct-19 @ 15:00 - Oct-19 @ 20:00
Wind Visibility
220° at 15 knots
 Gusting to 25 knots
Greater than 6 miles
Clouds
  • Broken at 3,000' AGL